sensor_id;sensor_type;location;lat;lon;timestamp;P1;durP1;ratioP1;P2;durP2;ratioP2
39370;SDS011;25099;51.946;4.838;2024-03-08T00:00:33;41.72;;;21.35;;
39370;SDS011;25099;51.946;4.838;2024-03-08T00:02:59;35.42;;;19.80;;
39370;SDS011;25099;51.946;4.838;2024-03-08T00:05:28;40.53;;;20.55;;
39370;SDS011;25099;51.946;4.838;2024-03-08T00:07:53;36.00;;;18.92;;
39370;SDS011;25099;51.946;4.838;2024-03-08T00:10:19;42.08;;;20.17;;
39370;SDS011;25099;51.946;4.838;2024-03-08T00:12:46;37.00;;;19.75;;
39370;SDS011;25099;51.946;4.838;2024-03-08T00:15:12;38.95;;;19.45;;
39370;SDS011;25099;51.946;4.838;2024-03-08T00:17:39;37.53;;;19.98;;
39370;SDS011;25099;51.946;4.838;2024-03-08T00:20:05;41.45;;;21.13;;
39370;SDS011;25099;51.946;4.838;2024-03-08T00:22:34;37.47;;;20.33;;
39370;SDS011;25099;51.946;4.838;2024-03-08T00:24:59;36.92;;;19.02;;
39370;SDS011;25099;51.946;4.838;2024-03-08T00:27:25;32.75;;;19.25;;
39370;SDS011;25099;51.946;4.838;2024-03-08T00:29:50;35.72;;;19.23;;
39370;SDS011;25099;51.946;4.838;2024-03-08T00:32:16;36.78;;;19.17;;
39370;SDS011;25099;51.946;4.838;2024-03-08T00:34:42;42.15;;;19.30;;
39370;SDS011;25099;51.946;4.838;2024-03-08T00:37:07;36.30;;;19.42;;
39370;SDS011;25099;51.946;4.838;2024-03-08T00:39:33;41.67;;;20.95;;
39370;SDS011;25099;51.946;4.838;2024-03-08T00:41:59;37.78;;;21.48;;
39370;SDS011;25099;51.946;4.838;2024-03-08T00:44:24;34.80;;;19.75;;
39370;SDS011;25099;51.946;4.838;2024-03-08T00:46:50;32.45;;;19.45;;
39370;SDS011;25099;51.946;4.838;2024-03-08T00:49:16;35.03;;;19.23;;
39370;SDS011;25099;51.946;4.838;2024-03-08T00:51:41;40.15;;;19.67;;
39370;SDS011;25099;51.946;4.838;2024-03-08T00:54:08;34.67;;;19.08;;
39370;SDS011;25099;51.946;4.838;2024-03-08T00:56:34;36.13;;;20.25;;
39370;SDS011;25099;51.946;4.838;2024-03-08T00:59:00;39.35;;;19.63;;
39370;SDS011;25099;51.946;4.838;2024-03-08T01:01:27;41.85;;;20.70;;
39370;SDS011;25099;51.946;4.838;2024-03-08T01:03:53;33.70;;;18.25;;
39370;SDS011;25099;51.946;4.838;2024-03-08T01:06:18;34.15;;;20.60;;
39370;SDS011;25099;51.946;4.838;2024-03-08T01:08:44;32.65;;;19.50;;
39370;SDS011;25099;51.946;4.838;2024-03-08T01:11:10;33.58;;;19.85;;
39370;SDS011;25099;51.946;4.838;2024-03-08T01:13:38;36.88;;;20.05;;
39370;SDS011;25099;51.946;4.838;2024-03-08T01:16:04;38.67;;;20.15;;
39370;SDS011;25099;51.946;4.838;2024-03-08T01:18:30;35.03;;;18.65;;
39370;SDS011;25099;51.946;4.838;2024-03-08T01:20:57;35.35;;;18.67;;
39370;SDS011;25099;51.946;4.838;2024-03-08T01:23:22;30.35;;;18.00;;
39370;SDS011;25099;51.946;4.838;2024-03-08T01:25:48;32.45;;;18.05;;
39370;SDS011;25099;51.946;4.838;2024-03-08T01:28:17;38.05;;;18.50;;
39370;SDS011;25099;51.946;4.838;2024-03-08T01:30:42;32.42;;;18.73;;
39370;SDS011;25099;51.946;4.838;2024-03-08T01:33:08;34.10;;;20.08;;
39370;SDS011;25099;51.946;4.838;2024-03-08T01:35:33;30.73;;;18.40;;
39370;SDS011;25099;51.946;4.838;2024-03-08T01:37:59;35.00;;;18.85;;
39370;SDS011;25099;51.946;4.838;2024-03-08T01:40:24;39.15;;;19.13;;
39370;SDS011;25099;51.946;4.838;2024-03-08T01:42:50;33.63;;;19.10;;
39370;SDS011;25099;51.946;4.838;2024-03-08T01:45:16;43.05;;;19.15;;
39370;SDS011;25099;51.946;4.838;2024-03-08T01:47:41;34.92;;;18.05;;
39370;SDS011;25099;51.946;4.838;2024-03-08T01:50:07;31.65;;;18.23;;
39370;SDS011;25099;51.946;4.838;2024-03-08T01:52:33;37.30;;;19.60;;
39370;SDS011;25099;51.946;4.838;2024-03-08T01:54:59;36.65;;;17.58;;
39370;SDS011;25099;51.946;4.838;2024-03-08T01:57:28;29.80;;;17.27;;
39370;SDS011;25099;51.946;4.838;2024-03-08T01:59:58;38.57;;;20.10;;
39370;SDS011;25099;51.946;4.838;2024-03-08T02:02:28;41.40;;;19.80;;
39370;SDS011;25099;51.946;4.838;2024-03-08T02:04:56;37.45;;;19.75;;
39370;SDS011;25099;51.946;4.838;2024-03-08T02:07:22;32.97;;;18.70;;
39370;SDS011;25099;51.946;4.838;2024-03-08T02:09:48;34.92;;;19.63;;
39370;SDS011;25099;51.946;4.838;2024-03-08T02:12:13;35.78;;;19.58;;
39370;SDS011;25099;51.946;4.838;2024-03-08T02:14:39;31.67;;;18.80;;
39370;SDS011;25099;51.946;4.838;2024-03-08T02:17:05;34.15;;;18.38;;
39370;SDS011;25099;51.946;4.838;2024-03-08T02:19:30;34.83;;;18.92;;
39370;SDS011;25099;51.946;4.838;2024-03-08T02:21:57;32.80;;;19.30;;
39370;SDS011;25099;51.946;4.838;2024-03-08T02:24:24;32.92;;;18.80;;
39370;SDS011;25099;51.946;4.838;2024-03-08T02:26:50;30.25;;;18.92;;
39370;SDS011;25099;51.946;4.838;2024-03-08T02:29:16;35.28;;;18.83;;
39370;SDS011;25099;51.946;4.838;2024-03-08T02:31:42;34.58;;;19.02;;
39370;SDS011;25099;51.946;4.838;2024-03-08T02:34:07;33.55;;;18.92;;
39370;SDS011;25099;51.946;4.838;2024-03-08T02:36:34;32.35;;;19.55;;
39370;SDS011;25099;51.946;4.838;2024-03-08T02:39:01;32.13;;;18.70;;
39370;SDS011;25099;51.946;4.838;2024-03-08T02:41:27;33.78;;;17.35;;
39370;SDS011;25099;51.946;4.838;2024-03-08T02:43:53;27.65;;;17.23;;
39370;SDS011;25099;51.946;4.838;2024-03-08T02:46:20;33.33;;;18.60;;
39370;SDS011;25099;51.946;4.838;2024-03-08T02:48:45;34.05;;;19.20;;
39370;SDS011;25099;51.946;4.838;2024-03-08T02:51:11;33.33;;;18.10;;
39370;SDS011;25099;51.946;4.838;2024-03-08T02:53:38;28.17;;;17.73;;
39370;SDS011;25099;51.946;4.838;2024-03-08T02:56:04;30.33;;;18.23;;
39370;SDS011;25099;51.946;4.838;2024-03-08T02:58:33;33.15;;;18.77;;
39370;SDS011;25099;51.946;4.838;2024-03-08T03:00:58;37.22;;;18.92;;
39370;SDS011;25099;51.946;4.838;2024-03-08T03:03:24;29.38;;;18.52;;
39370;SDS011;25099;51.946;4.838;2024-03-08T03:05:51;31.27;;;19.50;;
39370;SDS011;25099;51.946;4.838;2024-03-08T03:08:20;34.88;;;20.60;;
39370;SDS011;25099;51.946;4.838;2024-03-08T03:10:46;30.92;;;17.88;;
39370;SDS011;25099;51.946;4.838;2024-03-08T03:13:11;27.60;;;17.70;;
39370;SDS011;25099;51.946;4.838;2024-03-08T03:15:37;33.17;;;19.33;;
39370;SDS011;25099;51.946;4.838;2024-03-08T03:18:03;34.22;;;19.08;;
39370;SDS011;25099;51.946;4.838;2024-03-08T03:20:28;30.45;;;18.38;;
39370;SDS011;25099;51.946;4.838;2024-03-08T03:23:05;34.33;;;19.00;;
39370;SDS011;25099;51.946;4.838;2024-03-08T03:25:33;33.58;;;19.35;;
39370;SDS011;25099;51.946;4.838;2024-03-08T03:28:00;35.95;;;19.63;;
39370;SDS011;25099;51.946;4.838;2024-03-08T03:30:26;37.13;;;19.67;;
39370;SDS011;25099;51.946;4.838;2024-03-08T03:32:55;36.58;;;21.08;;
39370;SDS011;25099;51.946;4.838;2024-03-08T03:35:23;34.40;;;20.38;;
39370;SDS011;25099;51.946;4.838;2024-03-08T03:37:49;30.73;;;18.23;;
39370;SDS011;25099;51.946;4.838;2024-03-08T03:40:33;33.15;;;19.10;;
39370;SDS011;25099;51.946;4.838;2024-03-08T03:42:59;32.65;;;19.67;;
39370;SDS011;25099;51.946;4.838;2024-03-08T03:45:25;34.33;;;20.40;;
39370;SDS011;25099;51.946;4.838;2024-03-08T03:47:51;32.08;;;19.98;;
39370;SDS011;25099;51.946;4.838;2024-03-08T03:50:19;34.25;;;19.50;;
39370;SDS011;25099;51.946;4.838;2024-03-08T03:52:46;38.42;;;21.17;;
39370;SDS011;25099;51.946;4.838;2024-03-08T03:55:12;32.83;;;20.15;;
39370;SDS011;25099;51.946;4.838;2024-03-08T03:57:38;41.67;;;19.65;;
39370;SDS011;25099;51.946;4.838;2024-03-08T04:00:04;32.20;;;19.17;;
39370;SDS011;25099;51.946;4.838;2024-03-08T04:02:31;34.47;;;20.13;;
39370;SDS011;25099;51.946;4.838;2024-03-08T04:04:56;34.42;;;19.73;;
39370;SDS011;25099;51.946;4.838;2024-03-08T04:07:22;35.58;;;19.80;;
39370;SDS011;25099;51.946;4.838;2024-03-08T04:09:48;32.88;;;20.35;;
39370;SDS011;25099;51.946;4.838;2024-03-08T04:12:14;30.98;;;19.08;;
39370;SDS011;25099;51.946;4.838;2024-03-08T04:14:41;32.92;;;19.73;;
39370;SDS011;25099;51.946;4.838;2024-03-08T04:17:07;35.50;;;19.30;;
39370;SDS011;25099;51.946;4.838;2024-03-08T04:19:37;33.90;;;20.50;;
39370;SDS011;25099;51.946;4.838;2024-03-08T04:22:03;31.50;;;20.13;;
39370;SDS011;25099;51.946;4.838;2024-03-08T04:24:28;33.90;;;21.23;;
39370;SDS011;25099;51.946;4.838;2024-03-08T04:26:55;30.88;;;19.67;;
39370;SDS011;25099;51.946;4.838;2024-03-08T04:29:21;32.60;;;21.02;;
39370;SDS011;25099;51.946;4.838;2024-03-08T04:31:47;33.90;;;19.92;;
39370;SDS011;25099;51.946;4.838;2024-03-08T04:34:12;34.88;;;20.73;;
39370;SDS011;25099;51.946;4.838;2024-03-08T04:36:38;38.60;;;22.67;;
39370;SDS011;25099;51.946;4.838;2024-03-08T04:39:03;37.95;;;20.85;;
39370;SDS011;25099;51.946;4.838;2024-03-08T04:41:29;34.80;;;21.92;;
39370;SDS011;25099;51.946;4.838;2024-03-08T04:43:55;39.28;;;21.88;;
39370;SDS011;25099;51.946;4.838;2024-03-08T04:46:22;36.97;;;21.40;;
39370;SDS011;25099;51.946;4.838;2024-03-08T04:48:48;31.17;;;20.38;;
39370;SDS011;25099;51.946;4.838;2024-03-08T04:51:14;30.88;;;19.83;;
39370;SDS011;25099;51.946;4.838;2024-03-08T04:53:40;31.73;;;20.15;;
39370;SDS011;25099;51.946;4.838;2024-03-08T04:56:06;34.42;;;19.77;;
39370;SDS011;25099;51.946;4.838;2024-03-08T04:58:32;31.33;;;20.02;;
39370;SDS011;25099;51.946;4.838;2024-03-08T05:01:00;31.90;;;20.35;;
39370;SDS011;25099;51.946;4.838;2024-03-08T05:03:26;29.83;;;20.35;;
39370;SDS011;25099;51.946;4.838;2024-03-08T05:05:52;39.88;;;20.88;;
39370;SDS011;25099;51.946;4.838;2024-03-08T05:08:18;34.45;;;21.10;;
39370;SDS011;25099;51.946;4.838;2024-03-08T05:10:44;40.50;;;22.77;;
39370;SDS011;25099;51.946;4.838;2024-03-08T05:13:10;37.40;;;21.95;;
39370;SDS011;25099;51.946;4.838;2024-03-08T05:15:35;30.92;;;19.92;;
39370;SDS011;25099;51.946;4.838;2024-03-08T05:18:01;32.08;;;21.27;;
39370;SDS011;25099;51.946;4.838;2024-03-08T05:20:27;35.60;;;20.75;;
39370;SDS011;25099;51.946;4.838;2024-03-08T05:22:53;34.95;;;21.65;;
39370;SDS011;25099;51.946;4.838;2024-03-08T05:25:18;32.00;;;20.20;;
39370;SDS011;25099;51.946;4.838;2024-03-08T05:27:44;36.80;;;20.45;;
39370;SDS011;25099;51.946;4.838;2024-03-08T05:30:09;34.08;;;22.15;;
39370;SDS011;25099;51.946;4.838;2024-03-08T05:32:40;36.78;;;21.58;;
39370;SDS011;25099;51.946;4.838;2024-03-08T05:35:10;37.67;;;22.40;;
39370;SDS011;25099;51.946;4.838;2024-03-08T05:37:41;36.72;;;22.35;;
39370;SDS011;25099;51.946;4.838;2024-03-08T05:40:10;34.50;;;22.02;;
39370;SDS011;25099;51.946;4.838;2024-03-08T05:42:35;32.63;;;21.45;;
39370;SDS011;25099;51.946;4.838;2024-03-08T05:45:01;33.15;;;20.73;;
39370;SDS011;25099;51.946;4.838;2024-03-08T05:47:34;36.47;;;22.65;;
39370;SDS011;25099;51.946;4.838;2024-03-08T05:50:00;33.03;;;21.13;;
39370;SDS011;25099;51.946;4.838;2024-03-08T05:52:26;34.53;;;22.70;;
39370;SDS011;25099;51.946;4.838;2024-03-08T05:54:52;41.30;;;23.73;;
39370;SDS011;25099;51.946;4.838;2024-03-08T05:57:17;34.45;;;21.48;;
39370;SDS011;25099;51.946;4.838;2024-03-08T05:59:43;36.95;;;22.25;;
39370;SDS011;25099;51.946;4.838;2024-03-08T06:02:09;36.65;;;21.67;;
39370;SDS011;25099;51.946;4.838;2024-03-08T06:04:35;34.60;;;22.20;;
39370;SDS011;25099;51.946;4.838;2024-03-08T06:07:00;36.58;;;21.83;;
39370;SDS011;25099;51.946;4.838;2024-03-08T06:09:28;36.47;;;22.98;;
39370;SDS011;25099;51.946;4.838;2024-03-08T06:11:54;38.13;;;22.52;;
39370;SDS011;25099;51.946;4.838;2024-03-08T06:14:19;34.28;;;22.33;;
39370;SDS011;25099;51.946;4.838;2024-03-08T06:16:45;35.08;;;22.08;;
39370;SDS011;25099;51.946;4.838;2024-03-08T06:19:11;37.25;;;22.02;;
39370;SDS011;25099;51.946;4.838;2024-03-08T06:21:38;31.77;;;21.13;;
39370;SDS011;25099;51.946;4.838;2024-03-08T06:24:04;36.47;;;22.50;;
39370;SDS011;25099;51.946;4.838;2024-03-08T06:26:30;36.08;;;22.45;;
39370;SDS011;25099;51.946;4.838;2024-03-08T06:28:55;37.75;;;22.73;;
39370;SDS011;25099;51.946;4.838;2024-03-08T06:31:21;35.97;;;21.20;;
39370;SDS011;25099;51.946;4.838;2024-03-08T06:33:47;38.40;;;22.42;;
39370;SDS011;25099;51.946;4.838;2024-03-08T06:36:16;36.83;;;22.13;;
39370;SDS011;25099;51.946;4.838;2024-03-08T06:38:44;36.95;;;22.48;;
39370;SDS011;25099;51.946;4.838;2024-03-08T06:41:11;36.00;;;22.73;;
39370;SDS011;25099;51.946;4.838;2024-03-08T06:43:43;34.47;;;20.85;;
39370;SDS011;25099;51.946;4.838;2024-03-08T06:46:09;38.20;;;22.95;;
39370;SDS011;25099;51.946;4.838;2024-03-08T06:48:36;39.10;;;22.40;;
39370;SDS011;25099;51.946;4.838;2024-03-08T06:51:04;37.38;;;23.38;;
39370;SDS011;25099;51.946;4.838;2024-03-08T06:53:30;37.15;;;22.10;;
39370;SDS011;25099;51.946;4.838;2024-03-08T06:55:56;33.08;;;21.15;;
39370;SDS011;25099;51.946;4.838;2024-03-08T06:58:22;38.20;;;22.20;;
39370;SDS011;25099;51.946;4.838;2024-03-08T07:00:48;39.00;;;21.73;;
39370;SDS011;25099;51.946;4.838;2024-03-08T07:03:17;38.67;;;23.17;;
39370;SDS011;25099;51.946;4.838;2024-03-08T07:05:43;36.58;;;22.65;;
39370;SDS011;25099;51.946;4.838;2024-03-08T07:08:08;33.90;;;20.92;;
39370;SDS011;25099;51.946;4.838;2024-03-08T07:10:34;37.47;;;21.58;;
39370;SDS011;25099;51.946;4.838;2024-03-08T07:13:02;33.22;;;20.90;;
39370;SDS011;25099;51.946;4.838;2024-03-08T07:15:28;31.95;;;21.08;;
39370;SDS011;25099;51.946;4.838;2024-03-08T07:17:53;36.88;;;22.35;;
39370;SDS011;25099;51.946;4.838;2024-03-08T07:20:20;40.05;;;22.75;;
39370;SDS011;25099;51.946;4.838;2024-03-08T07:22:46;33.50;;;22.17;;
39370;SDS011;25099;51.946;4.838;2024-03-08T07:25:12;37.25;;;22.10;;
39370;SDS011;25099;51.946;4.838;2024-03-08T07:27:50;39.97;;;22.60;;
39370;SDS011;25099;51.946;4.838;2024-03-08T07:30:17;35.50;;;20.95;;
39370;SDS011;25099;51.946;4.838;2024-03-08T07:33:02;34.30;;;21.65;;
39370;SDS011;25099;51.946;4.838;2024-03-08T07:35:28;36.30;;;21.90;;
39370;SDS011;25099;51.946;4.838;2024-03-08T07:37:54;35.85;;;23.25;;
39370;SDS011;25099;51.946;4.838;2024-03-08T07:40:20;43.47;;;22.75;;
39370;SDS011;25099;51.946;4.838;2024-03-08T07:42:46;39.83;;;22.80;;
39370;SDS011;25099;51.946;4.838;2024-03-08T07:45:12;37.33;;;22.15;;
39370;SDS011;25099;51.946;4.838;2024-03-08T07:47:37;34.88;;;21.75;;
39370;SDS011;25099;51.946;4.838;2024-03-08T07:50:03;37.17;;;22.58;;
39370;SDS011;25099;51.946;4.838;2024-03-08T07:52:29;38.28;;;22.92;;
39370;SDS011;25099;51.946;4.838;2024-03-08T07:54:55;38.97;;;21.80;;
39370;SDS011;25099;51.946;4.838;2024-03-08T07:57:20;44.35;;;21.90;;
39370;SDS011;25099;51.946;4.838;2024-03-08T07:59:46;34.80;;;22.33;;
39370;SDS011;25099;51.946;4.838;2024-03-08T08:02:11;33.08;;;20.85;;
39370;SDS011;25099;51.946;4.838;2024-03-08T08:04:37;35.95;;;21.48;;
39370;SDS011;25099;51.946;4.838;2024-03-08T08:07:03;45.47;;;21.58;;
39370;SDS011;25099;51.946;4.838;2024-03-08T08:09:29;35.58;;;22.08;;
39370;SDS011;25099;51.946;4.838;2024-03-08T08:11:59;34.20;;;21.10;;
39370;SDS011;25099;51.946;4.838;2024-03-08T08:14:27;36.58;;;22.10;;
39370;SDS011;25099;51.946;4.838;2024-03-08T08:16:54;37.03;;;21.65;;
39370;SDS011;25099;51.946;4.838;2024-03-08T08:19:20;33.75;;;21.85;;
39370;SDS011;25099;51.946;4.838;2024-03-08T08:21:46;36.75;;;22.27;;
39370;SDS011;25099;51.946;4.838;2024-03-08T08:24:12;38.80;;;23.88;;
39370;SDS011;25099;51.946;4.838;2024-03-08T08:26:37;36.53;;;21.58;;
39370;SDS011;25099;51.946;4.838;2024-03-08T08:29:03;34.92;;;22.08;;
39370;SDS011;25099;51.946;4.838;2024-03-08T08:31:31;34.25;;;21.40;;
39370;SDS011;25099;51.946;4.838;2024-03-08T08:33:57;38.40;;;22.35;;
39370;SDS011;25099;51.946;4.838;2024-03-08T08:36:26;36.67;;;23.65;;
39370;SDS011;25099;51.946;4.838;2024-03-08T08:38:51;36.83;;;21.70;;
39370;SDS011;25099;51.946;4.838;2024-03-08T08:41:21;37.10;;;22.67;;
39370;SDS011;25099;51.946;4.838;2024-03-08T08:43:47;38.08;;;21.63;;
39370;SDS011;25099;51.946;4.838;2024-03-08T08:46:16;36.80;;;21.63;;
39370;SDS011;25099;51.946;4.838;2024-03-08T08:48:42;38.08;;;21.63;;
39370;SDS011;25099;51.946;4.838;2024-03-08T08:51:10;34.90;;;21.52;;
39370;SDS011;25099;51.946;4.838;2024-03-08T08:53:37;35.15;;;21.58;;
39370;SDS011;25099;51.946;4.838;2024-03-08T08:58:33;33.38;;;21.50;;
39370;SDS011;25099;51.946;4.838;2024-03-08T09:00:59;35.20;;;21.25;;
39370;SDS011;25099;51.946;4.838;2024-03-08T09:03:24;35.58;;;22.23;;
39370;SDS011;25099;51.946;4.838;2024-03-08T09:05:52;35.90;;;21.52;;
39370;SDS011;25099;51.946;4.838;2024-03-08T09:08:17;43.28;;;22.42;;
39370;SDS011;25099;51.946;4.838;2024-03-08T09:10:43;35.97;;;22.02;;
39370;SDS011;25099;51.946;4.838;2024-03-08T09:13:09;41.30;;;22.27;;
39370;SDS011;25099;51.946;4.838;2024-03-08T09:15:36;35.70;;;22.02;;
39370;SDS011;25099;51.946;4.838;2024-03-08T09:18:05;41.10;;;23.95;;
39370;SDS011;25099;51.946;4.838;2024-03-08T09:20:31;40.08;;;22.35;;
39370;SDS011;25099;51.946;4.838;2024-03-08T09:22:57;38.17;;;22.52;;
39370;SDS011;25099;51.946;4.838;2024-03-08T09:25:23;38.03;;;22.63;;
39370;SDS011;25099;51.946;4.838;2024-03-08T09:27:48;40.33;;;23.25;;
39370;SDS011;25099;51.946;4.838;2024-03-08T09:30:14;31.88;;;20.50;;
39370;SDS011;25099;51.946;4.838;2024-03-08T09:32:40;34.33;;;21.15;;
39370;SDS011;25099;51.946;4.838;2024-03-08T09:35:06;37.70;;;22.77;;
39370;SDS011;25099;51.946;4.838;2024-03-08T09:37:32;34.65;;;21.65;;
39370;SDS011;25099;51.946;4.838;2024-03-08T09:39:59;35.78;;;23.40;;
39370;SDS011;25099;51.946;4.838;2024-03-08T09:42:24;38.97;;;22.75;;
39370;SDS011;25099;51.946;4.838;2024-03-08T09:44:50;41.03;;;23.63;;
39370;SDS011;25099;51.946;4.838;2024-03-08T09:47:17;40.20;;;23.42;;
39370;SDS011;25099;51.946;4.838;2024-03-08T09:49:43;35.83;;;22.15;;
39370;SDS011;25099;51.946;4.838;2024-03-08T09:52:10;37.72;;;22.70;;
39370;SDS011;25099;51.946;4.838;2024-03-08T09:54:37;36.50;;;21.92;;
39370;SDS011;25099;51.946;4.838;2024-03-08T09:57:04;37.08;;;22.67;;
39370;SDS011;25099;51.946;4.838;2024-03-08T09:59:33;35.40;;;21.73;;
39370;SDS011;25099;51.946;4.838;2024-03-08T10:01:58;33.15;;;21.58;;
39370;SDS011;25099;51.946;4.838;2024-03-08T10:04:25;35.78;;;22.15;;
39370;SDS011;25099;51.946;4.838;2024-03-08T10:06:53;35.72;;;22.08;;
39370;SDS011;25099;51.946;4.838;2024-03-08T10:09:19;36.25;;;22.27;;
39370;SDS011;25099;51.946;4.838;2024-03-08T10:11:45;35.95;;;23.48;;
39370;SDS011;25099;51.946;4.838;2024-03-08T10:14:11;36.33;;;22.80;;
39370;SDS011;25099;51.946;4.838;2024-03-08T10:16:38;32.78;;;21.85;;
39370;SDS011;25099;51.946;4.838;2024-03-08T10:19:04;36.22;;;22.83;;
39370;SDS011;25099;51.946;4.838;2024-03-08T10:21:30;34.63;;;22.45;;
39370;SDS011;25099;51.946;4.838;2024-03-08T10:23:57;35.97;;;21.25;;
39370;SDS011;25099;51.946;4.838;2024-03-08T10:26:24;39.15;;;22.48;;
39370;SDS011;25099;51.946;4.838;2024-03-08T10:28:50;38.58;;;21.95;;
39370;SDS011;25099;51.946;4.838;2024-03-08T10:31:17;34.22;;;22.00;;
39370;SDS011;25099;51.946;4.838;2024-03-08T10:33:44;33.80;;;20.60;;
39370;SDS011;25099;51.946;4.838;2024-03-08T10:36:11;35.03;;;20.63;;
39370;SDS011;25099;51.946;4.838;2024-03-08T10:38:38;46.88;;;21.52;;
39370;SDS011;25099;51.946;4.838;2024-03-08T10:41:09;32.45;;;19.55;;
39370;SDS011;25099;51.946;4.838;2024-03-08T10:46:18;35.80;;;21.27;;
39370;SDS011;25099;51.946;4.838;2024-03-08T10:48:55;37.75;;;20.08;;
39370;SDS011;25099;51.946;4.838;2024-03-08T10:51:23;29.05;;;20.27;;
39370;SDS011;25099;51.946;4.838;2024-03-08T10:53:50;33.95;;;22.23;;
39370;SDS011;25099;51.946;4.838;2024-03-08T10:56:19;30.80;;;20.33;;
39370;SDS011;25099;51.946;4.838;2024-03-08T10:58:44;32.10;;;20.55;;
39370;SDS011;25099;51.946;4.838;2024-03-08T11:01:13;29.67;;;19.88;;
39370;SDS011;25099;51.946;4.838;2024-03-08T11:06:08;32.80;;;20.20;;
39370;SDS011;25099;51.946;4.838;2024-03-08T11:08:40;30.75;;;18.75;;
39370;SDS011;25099;51.946;4.838;2024-03-08T11:11:06;34.15;;;21.33;;
39370;SDS011;25099;51.946;4.838;2024-03-08T11:13:53;29.92;;;20.85;;
39370;SDS011;25099;51.946;4.838;2024-03-08T11:18:53;35.33;;;19.90;;
39370;SDS011;25099;51.946;4.838;2024-03-08T11:21:20;30.65;;;20.27;;
39370;SDS011;25099;51.946;4.838;2024-03-08T11:24:01;33.05;;;19.83;;
39370;SDS011;25099;51.946;4.838;2024-03-08T11:26:38;30.98;;;21.23;;
39370;SDS011;25099;51.946;4.838;2024-03-08T11:34:45;31.55;;;19.25;;
39370;SDS011;25099;51.946;4.838;2024-03-08T11:37:13;28.33;;;18.88;;
39370;SDS011;25099;51.946;4.838;2024-03-08T11:39:40;27.15;;;19.00;;
39370;SDS011;25099;51.946;4.838;2024-03-08T11:42:16;27.15;;;18.40;;
39370;SDS011;25099;51.946;4.838;2024-03-08T11:44:45;32.67;;;18.98;;
39370;SDS011;25099;51.946;4.838;2024-03-08T11:47:12;30.58;;;18.73;;
39370;SDS011;25099;51.946;4.838;2024-03-08T11:49:39;27.30;;;17.50;;
39370;SDS011;25099;51.946;4.838;2024-03-08T11:52:10;27.85;;;16.48;;
39370;SDS011;25099;51.946;4.838;2024-03-08T11:54:38;29.88;;;17.95;;
39370;SDS011;25099;51.946;4.838;2024-03-08T11:57:04;26.00;;;17.05;;
39370;SDS011;25099;51.946;4.838;2024-03-08T11:59:30;31.75;;;18.20;;
39370;SDS011;25099;51.946;4.838;2024-03-08T12:02:02;30.65;;;17.15;;
39370;SDS011;25099;51.946;4.838;2024-03-08T12:04:29;28.42;;;17.48;;
39370;SDS011;25099;51.946;4.838;2024-03-08T12:06:56;27.13;;;17.42;;
39370;SDS011;25099;51.946;4.838;2024-03-08T12:09:24;28.05;;;17.95;;
39370;SDS011;25099;51.946;4.838;2024-03-08T12:11:50;25.40;;;17.45;;
39370;SDS011;25099;51.946;4.838;2024-03-08T12:14:16;23.23;;;16.63;;
39370;SDS011;25099;51.946;4.838;2024-03-08T12:16:43;27.80;;;18.20;;
39370;SDS011;25099;51.946;4.838;2024-03-08T12:19:09;23.15;;;16.80;;
39370;SDS011;25099;51.946;4.838;2024-03-08T12:21:35;30.13;;;18.45;;
39370;SDS011;25099;51.946;4.838;2024-03-08T12:24:04;25.60;;;17.92;;
39370;SDS011;25099;51.946;4.838;2024-03-08T12:26:38;24.63;;;17.70;;
39370;SDS011;25099;51.946;4.838;2024-03-08T12:32:06;27.63;;;18.75;;
39370;SDS011;25099;51.946;4.838;2024-03-08T12:34:32;24.77;;;17.95;;
39370;SDS011;25099;51.946;4.838;2024-03-08T12:36:58;27.58;;;18.55;;
39370;SDS011;25099;51.946;4.838;2024-03-08T12:39:23;25.73;;;18.23;;
39370;SDS011;25099;51.946;4.838;2024-03-08T12:41:52;24.45;;;17.67;;
39370;SDS011;25099;51.946;4.838;2024-03-08T12:44:18;27.92;;;17.85;;
39370;SDS011;25099;51.946;4.838;2024-03-08T12:46:46;27.92;;;18.58;;
39370;SDS011;25099;51.946;4.838;2024-03-08T12:49:13;32.90;;;17.65;;
39370;SDS011;25099;51.946;4.838;2024-03-08T12:51:42;26.17;;;17.67;;
39370;SDS011;25099;51.946;4.838;2024-03-08T12:54:08;23.58;;;17.05;;
39370;SDS011;25099;51.946;4.838;2024-03-08T12:56:34;24.30;;;17.55;;
39370;SDS011;25099;51.946;4.838;2024-03-08T12:59:02;21.63;;;16.08;;
39370;SDS011;25099;51.946;4.838;2024-03-08T13:01:29;22.08;;;15.98;;
39370;SDS011;25099;51.946;4.838;2024-03-08T13:03:58;26.50;;;17.45;;
39370;SDS011;25099;51.946;4.838;2024-03-08T13:06:26;23.58;;;16.67;;
39370;SDS011;25099;51.946;4.838;2024-03-08T13:08:53;25.55;;;17.38;;
39370;SDS011;25099;51.946;4.838;2024-03-08T13:11:30;28.48;;;17.90;;
39370;SDS011;25099;51.946;4.838;2024-03-08T13:14:01;26.30;;;18.23;;
39370;SDS011;25099;51.946;4.838;2024-03-08T13:16:28;23.25;;;16.92;;
39370;SDS011;25099;51.946;4.838;2024-03-08T13:18:54;26.98;;;16.33;;
39370;SDS011;25099;51.946;4.838;2024-03-08T13:21:22;24.50;;;17.45;;
39370;SDS011;25099;51.946;4.838;2024-03-08T13:23:49;21.15;;;16.30;;
39370;SDS011;25099;51.946;4.838;2024-03-08T13:26:18;27.95;;;17.15;;
39370;SDS011;25099;51.946;4.838;2024-03-08T13:28:47;23.52;;;17.05;;
39370;SDS011;25099;51.946;4.838;2024-03-08T13:31:19;23.67;;;16.67;;
39370;SDS011;25099;51.946;4.838;2024-03-08T13:33:45;25.42;;;16.65;;
39370;SDS011;25099;51.946;4.838;2024-03-08T13:36:12;30.63;;;16.92;;
39370;SDS011;25099;51.946;4.838;2024-03-08T13:38:43;25.15;;;16.42;;
39370;SDS011;25099;51.946;4.838;2024-03-08T13:41:10;22.10;;;16.43;;
39370;SDS011;25099;51.946;4.838;2024-03-08T13:43:37;21.73;;;16.08;;
39370;SDS011;25099;51.946;4.838;2024-03-08T13:46:03;22.42;;;16.77;;
39370;SDS011;25099;51.946;4.838;2024-03-08T13:48:29;26.10;;;17.63;;
39370;SDS011;25099;51.946;4.838;2024-03-08T13:50:56;23.35;;;16.55;;
39370;SDS011;25099;51.946;4.838;2024-03-08T13:53:22;23.15;;;15.90;;
39370;SDS011;25099;51.946;4.838;2024-03-08T13:55:48;22.55;;;16.77;;
39370;SDS011;25099;51.946;4.838;2024-03-08T13:58:15;22.52;;;16.77;;
39370;SDS011;25099;51.946;4.838;2024-03-08T14:00:41;23.60;;;16.35;;
39370;SDS011;25099;51.946;4.838;2024-03-08T14:03:08;27.92;;;16.92;;
39370;SDS011;25099;51.946;4.838;2024-03-08T14:05:35;27.23;;;18.17;;
39370;SDS011;25099;51.946;4.838;2024-03-08T14:08:04;27.38;;;16.60;;
39370;SDS011;25099;51.946;4.838;2024-03-08T14:10:32;25.98;;;17.13;;
39370;SDS011;25099;51.946;4.838;2024-03-08T14:12:59;23.85;;;16.20;;
39370;SDS011;25099;51.946;4.838;2024-03-08T14:15:25;21.13;;;16.60;;
39370;SDS011;25099;51.946;4.838;2024-03-08T14:17:55;22.83;;;17.15;;
39370;SDS011;25099;51.946;4.838;2024-03-08T14:20:21;25.52;;;16.40;;
39370;SDS011;25099;51.946;4.838;2024-03-08T14:22:56;24.67;;;15.98;;
39370;SDS011;25099;51.946;4.838;2024-03-08T14:25:22;23.42;;;17.15;;
39370;SDS011;25099;51.946;4.838;2024-03-08T14:27:49;23.45;;;17.70;;
39370;SDS011;25099;51.946;4.838;2024-03-08T14:30:15;27.85;;;16.85;;
39370;SDS011;25099;51.946;4.838;2024-03-08T14:32:57;29.08;;;17.23;;
39370;SDS011;25099;51.946;4.838;2024-03-08T14:35:23;26.23;;;18.52;;
39370;SDS011;25099;51.946;4.838;2024-03-08T14:37:50;30.45;;;19.00;;